Khania/Souda, Greece
Current Conditions -  °F | °C
As of 12:50 AM on Thursday 23 Oct 2014 (Local Time) from LGSA Reporting Station
Scattered Clouds Scattered Clouds  
Wind Chill: 66°   Ceiling: Unl
Heat Index: 66°   Visibility: 6mi
Dew Point: 59°   Wind: 0mph
Humidity: 78%   Direction: NA
Pressure: 29.74"   Gusts: NA
Location:  35.53°N, 24.15°E
Report Text: LGSA 222150Z 00000KT 9999 FEW020TCU SCT025 19/15 Q1007
Loading
Personal Weather Stations






























Interactive Weather Map
Tropical Storm Tracking
New forecast layout! Learn more

10-Day Weather Forecast

Advertisements
Track Severe Weather on mobile